Time;durP1;ratioP1;P1;durP2;ratioP2;P2;SDS_P1;SDS_P2;PMS_P1;PMS_P2;Temp;Humidity;BMP_temperature;BMP_pressure;BME280_temperature;BME280_humidity;BME280_pressure;Samples;Min_cycle;Max_cycle;Signal;HPM_P1;HPM_P2
2023/03/05 00:00:13;;;;;;;;;;;19.20;38.20;;;;;;5110493;27;19924;-61
2023/03/05 00:02:40;;;;;;;;;;;19.20;38.30;;;;;;5114111;27;19927;-61
2023/03/05 00:05:08;;;;;;;;;;;19.20;38.30;;;;;;5112665;28;19919;-60
2023/03/05 00:07:35;;;;;;;;;;;19.20;38.30;;;;;;5106620;27;20223;-61
2023/03/05 00:10:09;;;;;;;;;;;19.20;38.40;;;;;;5114011;28;19981;-61
2023/03/05 00:12:35;;;;;;;;;;;19.20;38.40;;;;;;5113072;27;19920;-60
2023/03/05 00:15:02;;;;;;;;;;;19.20;38.50;;;;;;5110404;28;19973;-61
2023/03/05 00:17:31;;;;;;;;;;;19.20;38.50;;;;;;5113766;28;20022;-61
2023/03/05 00:19:58;;;;;;;;;;;19.20;38.50;;;;;;5112233;27;19924;-62
2023/03/05 00:22:25;;;;;;;;;;;19.20;38.60;;;;;;5129314;27;19965;-61
2023/03/05 00:24:52;;;;;;;;;;;19.20;38.50;;;;;;5093744;28;20284;-62
2023/03/05 00:27:19;;;;;;;;;;;19.20;38.60;;;;;;5099415;27;19923;-62
2023/03/05 00:29:46;;;;;;;;;;;19.20;38.60;;;;;;5131954;27;19923;-61
2023/03/05 00:32:12;;;;;;;;;;;19.20;38.60;;;;;;5109711;27;19919;-62
2023/03/05 00:34:40;;;;;;;;;;;19.20;38.70;;;;;;5131259;27;19931;-63
2023/03/05 00:37:07;;;;;;;;;;;19.20;38.60;;;;;;5114660;27;19938;-61
2023/03/05 00:39:34;;;;;;;;;;;19.20;38.70;;;;;;5110785;28;19919;-63
2023/03/05 00:42:01;;;;;;;;;;;19.20;38.70;;;;;;5106135;28;19928;-61
2023/03/05 00:44:27;;;;;;;;;;;19.20;38.70;;;;;;5110852;28;19924;-62
2023/03/05 00:46:54;;;;;;;;;;;19.20;38.70;;;;;;5111096;28;20346;-60
2023/03/05 00:49:23;;;;;;;;;;;19.20;38.70;;;;;;5110426;28;19977;-59
2023/03/05 00:51:51;;;;;;;;;;;19.20;38.70;;;;;;5110507;28;19920;-60
2023/03/05 00:54:18;;;;;;;;;;;19.20;38.70;;;;;;5135994;27;19974;-60
2023/03/05 00:56:48;;;;;;;;;;;19.20;38.70;;;;;;5107455;27;19920;-61
2023/03/05 00:59:14;;;;;;;;;;;19.20;38.70;;;;;;5100193;28;19927;-61
2023/03/05 01:01:41;;;;;;;;;;;19.20;38.80;;;;;;5090348;28;19924;-62
2023/03/05 01:04:08;;;;;;;;;;;19.20;38.80;;;;;;5106558;27;19935;-60
2023/03/05 01:06:35;;;;;;;;;;;19.20;38.80;;;;;;5097066;28;20282;-60
2023/03/05 01:09:03;;;;;;;;;;;19.20;38.80;;;;;;5099382;28;19920;-62
2023/03/05 01:11:30;;;;;;;;;;;19.20;38.80;;;;;;5107133;28;19925;-61
2023/03/05 01:13:57;;;;;;;;;;;19.20;38.90;;;;;;5109643;28;19934;-63
2023/03/05 01:16:24;;;;;;;;;;;19.20;38.90;;;;;;5110165;28;19943;-61
2023/03/05 01:18:51;;;;;;;;;;;19.20;38.90;;;;;;5106980;28;19924;-61
2023/03/05 01:21:17;;;;;;;;;;;19.20;38.90;;;;;;5091115;28;19982;-59
2023/03/05 01:23:44;;;;;;;;;;;19.20;38.90;;;;;;5106390;27;19926;-60
2023/03/05 01:26:13;;;;;;;;;;;19.20;38.90;;;;;;5105614;28;19928;-60
2023/03/05 01:28:39;;;;;;;;;;;19.20;38.90;;;;;;5112497;27;19972;-60
2023/03/05 01:31:09;;;;;;;;;;;19.20;39.00;;;;;;5119036;27;19924;-63
2023/03/05 01:33:36;;;;;;;;;;;19.20;39.00;;;;;;5104430;27;19919;-61
2023/03/05 01:36:06;;;;;;;;;;;19.20;39.00;;;;;;5111074;28;19962;-61
2023/03/05 01:38:33;;;;;;;;;;;19.20;39.00;;;;;;5109927;28;20338;-61
2023/03/05 01:40:59;;;;;;;;;;;19.20;39.00;;;;;;5110141;28;19977;-61
2023/03/05 01:43:28;;;;;;;;;;;19.20;39.00;;;;;;5137679;27;19972;-61
2023/03/05 01:46:15;;;;;;;;;;;19.20;39.00;;;;;;5144159;27;19920;-61
2023/03/05 01:48:42;;;;;;;;;;;19.20;39.00;;;;;;5109224;28;19958;-63
2023/03/05 01:51:09;;;;;;;;;;;19.20;39.00;;;;;;5109724;28;19930;-61
2023/03/05 01:53:35;;;;;;;;;;;19.20;39.10;;;;;;5108516;28;19924;-61
2023/03/05 01:56:02;;;;;;;;;;;19.20;39.10;;;;;;5111153;28;19923;-61
2023/03/05 01:58:31;;;;;;;;;;;19.20;39.10;;;;;;5109531;28;20014;-61
2023/03/05 02:00:57;;;;;;;;;;;19.20;39.10;;;;;;5105447;28;19942;-62
2023/03/05 02:03:24;;;;;;;;;;;19.20;39.10;;;;;;5102869;28;19931;-61
2023/03/05 02:05:52;;;;;;;;;;;19.20;39.10;;;;;;5123389;27;19920;-60
2023/03/05 02:08:20;;;;;;;;;;;19.20;39.10;;;;;;5106561;28;19920;-60
2023/03/05 02:10:48;;;;;;;;;;;19.20;39.10;;;;;;5109228;28;20247;-61
2023/03/05 02:13:16;;;;;;;;;;;19.20;39.10;;;;;;5102872;28;19938;-61
2023/03/05 02:15:46;;;;;;;;;;;19.20;39.20;;;;;;5096153;28;19920;-61
2023/03/05 02:18:13;;;;;;;;;;;19.20;39.20;;;;;;5090894;28;19928;-60
2023/03/05 02:20:55;;;;;;;;;;;19.20;39.20;;;;;;5099652;28;19920;-61
2023/03/05 02:23:26;;;;;;;;;;;19.20;39.20;;;;;;5134995;27;19942;-61
2023/03/05 02:25:54;;;;;;;;;;;19.20;39.20;;;;;;5110515;28;19924;-61
2023/03/05 02:28:23;;;;;;;;;;;19.20;39.20;;;;;;5110679;28;19923;-60
2023/03/05 02:30:50;;;;;;;;;;;19.20;39.20;;;;;;5109125;28;20018;-62
2023/03/05 02:33:19;;;;;;;;;;;19.20;39.20;;;;;;5100129;28;19928;-61
2023/03/05 02:35:48;;;;;;;;;;;19.20;39.20;;;;;;5107617;28;20358;-62
2023/03/05 02:38:15;;;;;;;;;;;19.20;39.20;;;;;;5109707;28;19920;-61
2023/03/05 02:40:43;;;;;;;;;;;19.20;39.30;;;;;;5107551;28;19933;-63
2023/03/05 02:43:10;;;;;;;;;;;19.20;39.30;;;;;;5143290;27;19935;-61
2023/03/05 02:45:36;;;;;;;;;;;19.10;39.20;;;;;;5110444;28;20369;-60
2023/03/05 02:48:03;;;;;;;;;;;19.10;39.20;;;;;;5100364;28;19928;-60
2023/03/05 02:50:30;;;;;;;;;;;19.20;39.30;;;;;;5104436;28;19920;-61
2023/03/05 02:52:57;;;;;;;;;;;19.20;39.30;;;;;;5092659;28;19920;-60
2023/03/05 02:55:24;;;;;;;;;;;19.20;39.30;;;;;;5108979;28;19919;-60
2023/03/05 02:57:52;;;;;;;;;;;19.20;39.30;;;;;;5122662;28;20321;-60
2023/03/05 03:00:19;;;;;;;;;;;19.20;39.30;;;;;;5145790;27;19972;-60
2023/03/05 03:02:46;;;;;;;;;;;19.20;39.30;;;;;;5136288;27;19924;-61
2023/03/05 03:05:14;;;;;;;;;;;19.20;39.30;;;;;;5107642;28;19927;-62
2023/03/05 03:07:41;;;;;;;;;;;19.20;39.30;;;;;;5106737;28;19923;-61
2023/03/05 03:10:09;;;;;;;;;;;19.20;39.30;;;;;;5104502;28;19931;-62
2023/03/05 03:12:36;;;;;;;;;;;19.10;39.20;;;;;;5092622;28;19965;-61
2023/03/05 03:15:06;;;;;;;;;;;19.20;39.30;;;;;;5142333;27;19924;-61
2023/03/05 03:17:35;;;;;;;;;;;19.20;39.30;;;;;;5143307;27;20270;-61
2023/03/05 03:20:02;;;;;;;;;;;19.20;39.30;;;;;;5098094;28;19920;-61
2023/03/05 03:22:29;;;;;;;;;;;19.10;39.20;;;;;;5090932;28;19931;-61
2023/03/05 03:24:57;;;;;;;;;;;19.10;39.20;;;;;;5101300;27;19920;-61
2023/03/05 03:27:24;;;;;;;;;;;19.20;39.30;;;;;;5092073;28;19943;-62
2023/03/05 03:29:51;;;;;;;;;;;19.20;39.30;;;;;;5106612;28;19948;-62
2023/03/05 03:32:19;;;;;;;;;;;19.20;39.30;;;;;;5111624;28;19969;-60
2023/03/05 03:34:46;;;;;;;;;;;19.10;39.30;;;;;;5111913;28;19919;-61
2023/03/05 03:37:13;;;;;;;;;;;19.20;39.30;;;;;;5112246;28;20275;-61
2023/03/05 03:39:40;;;;;;;;;;;19.20;39.30;;;;;;5113089;27;19923;-61
2023/03/05 03:42:07;;;;;;;;;;;19.20;39.30;;;;;;5111798;28;19919;-62
2023/03/05 03:44:36;;;;;;;;;;;19.20;39.30;;;;;;5111270;27;19931;-61
2023/03/05 03:47:03;;;;;;;;;;;19.20;39.30;;;;;;5113299;28;19923;-61
2023/03/05 03:49:31;;;;;;;;;;;19.20;39.30;;;;;;5113282;28;20327;-61
2023/03/05 03:51:58;;;;;;;;;;;19.20;39.30;;;;;;5111290;28;19989;-61
2023/03/05 03:54:24;;;;;;;;;;;19.20;39.30;;;;;;5110532;27;20098;-61
2023/03/05 03:56:51;;;;;;;;;;;19.20;39.30;;;;;;5091460;28;19920;-60
2023/03/05 03:59:18;;;;;;;;;;;19.20;39.30;;;;;;5099212;28;19920;-62
2023/03/05 04:01:46;;;;;;;;;;;19.10;39.30;;;;;;5093879;28;20378;-61
2023/03/05 04:04:12;;;;;;;;;;;19.20;39.30;;;;;;5107130;27;19923;-61
2023/03/05 04:06:40;;;;;;;;;;;19.10;39.30;;;;;;5111714;28;19974;-63
2023/03/05 04:09:08;;;;;;;;;;;19.20;39.30;;;;;;5099295;28;19958;-61
2023/03/05 04:11:34;;;;;;;;;;;19.10;39.30;;;;;;5096646;28;19920;-61
2023/03/05 04:14:01;;;;;;;;;;;19.20;39.40;;;;;;5112529;27;19979;-61
2023/03/05 04:16:28;;;;;;;;;;;19.20;39.30;;;;;;5132013;27;19968;-63
2023/03/05 04:18:55;;;;;;;;;;;19.20;39.40;;;;;;5132450;27;19972;-61
2023/03/05 04:21:21;;;;;;;;;;;19.20;39.40;;;;;;5105978;27;20304;-60
2023/03/05 04:23:49;;;;;;;;;;;19.20;39.40;;;;;;5102135;27;20324;-62
2023/03/05 04:26:16;;;;;;;;;;;19.10;39.30;;;;;;5106821;28;20015;-62
2023/03/05 04:28:48;;;;;;;;;;;19.20;39.40;;;;;;5126639;27;19931;-60
2023/03/05 04:31:16;;;;;;;;;;;19.20;39.40;;;;;;5112006;28;20374;-62
2023/03/05 04:33:43;;;;;;;;;;;19.20;39.50;;;;;;5095657;27;19920;-61
2023/03/05 04:36:09;;;;;;;;;;;19.10;39.40;;;;;;5122495;27;19954;-61
2023/03/05 04:38:36;;;;;;;;;;;19.20;39.50;;;;;;5112167;28;19920;-61
2023/03/05 04:41:04;;;;;;;;;;;19.20;39.60;;;;;;5124395;27;19923;-63
2023/03/05 04:43:31;;;;;;;;;;;19.20;39.50;;;;;;5103182;28;20328;-61
2023/03/05 04:45:58;;;;;;;;;;;19.20;39.60;;;;;;5110235;28;19959;-61
2023/03/05 04:48:25;;;;;;;;;;;19.20;39.60;;;;;;5111969;28;19996;-63
2023/03/05 04:50:51;;;;;;;;;;;19.20;39.60;;;;;;5102789;28;20338;-61
2023/03/05 04:53:18;;;;;;;;;;;19.20;39.60;;;;;;5108836;28;19959;-61
2023/03/05 04:55:45;;;;;;;;;;;19.20;39.70;;;;;;5110869;28;19966;-61
2023/03/05 04:58:13;;;;;;;;;;;19.20;39.70;;;;;;5109785;28;19965;-61
2023/03/05 05:00:40;;;;;;;;;;;19.20;39.70;;;;;;5135315;27;19959;-61
2023/03/05 05:03:07;;;;;;;;;;;19.20;39.70;;;;;;5091087;28;19920;-61
2023/03/05 05:05:34;;;;;;;;;;;19.20;39.70;;;;;;5122931;27;19931;-61
2023/03/05 05:08:06;;;;;;;;;;;19.20;39.70;;;;;;5110429;28;19923;-61
2023/03/05 05:10:32;;;;;;;;;;;19.20;39.70;;;;;;5110196;28;19920;-61
2023/03/05 05:13:00;;;;;;;;;;;19.20;39.80;;;;;;5111412;28;20343;-61
2023/03/05 05:15:28;;;;;;;;;;;19.20;39.80;;;;;;5110300;28;19920;-61
2023/03/05 05:18:02;;;;;;;;;;;19.20;39.80;;;;;;5098223;28;20370;-61
2023/03/05 05:20:34;;;;;;;;;;;19.20;39.80;;;;;;5102781;28;20011;-61
2023/03/05 05:23:01;;;;;;;;;;;19.20;39.80;;;;;;5144334;27;19927;-61
2023/03/05 05:25:28;;;;;;;;;;;19.20;39.80;;;;;;5123644;27;19974;-62
2023/03/05 05:27:55;;;;;;;;;;;19.20;39.80;;;;;;5130440;27;19983;-61
2023/03/05 05:30:22;;;;;;;;;;;19.20;39.90;;;;;;5121694;27;20009;-61
2023/03/05 05:32:52;;;;;;;;;;;19.20;39.90;;;;;;5132340;27;19924;-61
2023/03/05 05:35:19;;;;;;;;;;;19.20;39.90;;;;;;5147136;27;19920;-63
2023/03/05 05:37:45;;;;;;;;;;;19.20;39.90;;;;;;5130546;27;20039;-61
2023/03/05 05:40:13;;;;;;;;;;;19.20;39.90;;;;;;5109518;27;19924;-62
2023/03/05 05:42:39;;;;;;;;;;;19.20;39.90;;;;;;5109242;28;19975;-61
2023/03/05 05:45:08;;;;;;;;;;;19.20;39.90;;;;;;5111052;28;20358;-61
2023/03/05 05:47:35;;;;;;;;;;;19.20;39.90;;;;;;5109620;28;19992;-61
2023/03/05 05:50:03;;;;;;;;;;;19.20;39.90;;;;;;5102400;28;19924;-62
2023/03/05 05:52:29;;;;;;;;;;;19.20;39.90;;;;;;5091557;28;19919;-61
2023/03/05 05:54:56;;;;;;;;;;;19.20;39.90;;;;;;5151345;27;19920;-60
2023/03/05 05:57:23;;;;;;;;;;;19.20;39.90;;;;;;5130325;27;19919;-61
2023/03/05 05:59:50;;;;;;;;;;;19.20;40.00;;;;;;5120646;27;19919;-61
2023/03/05 06:02:17;;;;;;;;;;;19.20;40.00;;;;;;5102436;28;19919;-61
2023/03/05 06:04:44;;;;;;;;;;;19.20;40.00;;;;;;5109179;28;19950;-61
2023/03/05 06:07:12;;;;;;;;;;;19.20;40.00;;;;;;5091256;28;19928;-60
2023/03/05 06:09:39;;;;;;;;;;;19.20;40.00;;;;;;5109465;28;20189;-62
2023/03/05 06:12:06;;;;;;;;;;;19.20;40.00;;;;;;5108603;28;19973;-61
2023/03/05 06:14:33;;;;;;;;;;;19.20;40.00;;;;;;5109512;28;19936;-61
2023/03/05 06:17:00;;;;;;;;;;;19.20;40.00;;;;;;5108743;28;20297;-60
2023/03/05 06:19:27;;;;;;;;;;;19.20;40.00;;;;;;5108538;28;19920;-60
2023/03/05 06:21:53;;;;;;;;;;;19.20;40.00;;;;;;5127569;27;19977;-61
2023/03/05 06:24:21;;;;;;;;;;;19.20;40.00;;;;;;5122066;27;19970;-60
2023/03/05 06:26:48;;;;;;;;;;;19.20;40.10;;;;;;5107015;28;19920;-61
2023/03/05 06:29:15;;;;;;;;;;;19.20;40.10;;;;;;5108547;28;20369;-61
2023/03/05 06:31:42;;;;;;;;;;;19.20;40.10;;;;;;5103588;28;19920;-60
2023/03/05 06:34:10;;;;;;;;;;;19.20;40.10;;;;;;5088068;28;19970;-61
2023/03/05 06:36:36;;;;;;;;;;;19.20;40.10;;;;;;5161422;27;19919;-60
2023/03/05 06:39:04;;;;;;;;;;;19.20;40.10;;;;;;5111864;28;20319;-60
2023/03/05 06:41:32;;;;;;;;;;;19.20;40.20;;;;;;5106680;28;20018;-60
2023/03/05 06:44:01;;;;;;;;;;;19.20;40.20;;;;;;5108975;28;19980;-60
2023/03/05 06:46:28;;;;;;;;;;;19.20;40.20;;;;;;5109082;28;19931;-61
2023/03/05 06:48:55;;;;;;;;;;;19.20;40.20;;;;;;5108729;28;19943;-61
2023/03/05 06:51:23;;;;;;;;;;;19.20;40.20;;;;;;5108719;28;19923;-60
2023/03/05 06:53:50;;;;;;;;;;;19.20;40.20;;;;;;5109486;28;20020;-60
2023/03/05 06:56:17;;;;;;;;;;;19.20;40.20;;;;;;5116424;28;19920;-60
2023/03/05 06:58:48;;;;;;;;;;;19.20;40.20;;;;;;5110459;28;20022;-60
2023/03/05 07:01:15;;;;;;;;;;;19.20;40.30;;;;;;5111140;27;20440;-62
2023/03/05 07:03:41;;;;;;;;;;;19.20;40.20;;;;;;5112978;28;19965;-61
2023/03/05 07:06:09;;;;;;;;;;;19.20;40.20;;;;;;5112945;27;19969;-61
2023/03/05 07:08:36;;;;;;;;;;;19.20;40.20;;;;;;5114209;28;20349;-61
2023/03/05 07:11:02;;;;;;;;;;;19.20;40.30;;;;;;5111093;28;19924;-61
2023/03/05 07:13:29;;;;;;;;;;;19.20;40.20;;;;;;5109000;28;19949;-61
2023/03/05 07:15:57;;;;;;;;;;;19.20;40.30;;;;;;5136307;27;19920;-61
2023/03/05 07:18:24;;;;;;;;;;;19.20;40.20;;;;;;5111058;28;19923;-61
2023/03/05 07:20:51;;;;;;;;;;;19.20;40.30;;;;;;5110335;27;19972;-61
2023/03/05 07:23:17;;;;;;;;;;;19.20;40.30;;;;;;5111786;28;20338;-61
2023/03/05 07:25:44;;;;;;;;;;;19.20;40.30;;;;;;5113370;28;19927;-62
2023/03/05 07:28:11;;;;;;;;;;;19.20;40.30;;;;;;5110891;28;19928;-62
2023/03/05 07:30:38;;;;;;;;;;;19.20;40.30;;;;;;5110340;28;20410;-61
2023/03/05 07:33:06;;;;;;;;;;;19.20;40.30;;;;;;5137337;27;19923;-62
2023/03/05 07:35:32;;;;;;;;;;;19.20;40.30;;;;;;5110728;28;19928;-61
2023/03/05 07:37:59;;;;;;;;;;;19.20;40.30;;;;;;5111742;28;20004;-62
2023/03/05 07:40:32;;;;;;;;;;;19.20;40.30;;;;;;5113412;28;19920;-60
2023/03/05 07:42:59;;;;;;;;;;;19.20;40.30;;;;;;5105557;28;19931;-61
2023/03/05 07:45:26;;;;;;;;;;;19.20;40.30;;;;;;5109551;28;19997;-61
2023/03/05 07:47:54;;;;;;;;;;;19.20;40.30;;;;;;5110668;28;19923;-61
2023/03/05 07:50:23;;;;;;;;;;;19.20;40.30;;;;;;5110190;28;19927;-61
2023/03/05 07:52:49;;;;;;;;;;;19.20;40.30;;;;;;5111741;28;19935;-61
2023/03/05 07:55:16;;;;;;;;;;;19.20;40.30;;;;;;5137748;27;20501;-61
2023/03/05 07:57:43;;;;;;;;;;;19.20;40.20;;;;;;5134994;27;19927;-61
2023/03/05 08:00:10;;;;;;;;;;;19.20;40.30;;;;;;5108238;27;19931;-61
2023/03/05 08:02:37;;;;;;;;;;;19.20;40.30;;;;;;5110561;28;20034;-61
2023/03/05 08:05:04;;;;;;;;;;;19.20;40.20;;;;;;5109467;27;19932;-62
2023/03/05 08:07:33;;;;;;;;;;;19.20;40.20;;;;;;5109816;28;19923;-62
2023/03/05 08:10:00;;;;;;;;;;;19.20;40.30;;;;;;5107272;28;19964;-60
2023/03/05 08:12:27;;;;;;;;;;;19.20;40.30;;;;;;5107579;28;19959;-61
2023/03/05 08:14:54;;;;;;;;;;;19.20;40.30;;;;;;5111221;28;19920;-62
2023/03/05 08:17:20;;;;;;;;;;;19.20;40.30;;;;;;5105406;28;20384;-62
2023/03/05 08:19:47;;;;;;;;;;;19.20;40.30;;;;;;5110191;28;19920;-61
2023/03/05 08:22:14;;;;;;;;;;;19.20;40.30;;;;;;5108462;27;19924;-61
2023/03/05 08:24:43;;;;;;;;;;;19.20;40.30;;;;;;5108966;28;20030;-61
2023/03/05 08:27:13;;;;;;;;;;;19.20;40.30;;;;;;5108420;27;19927;-61
2023/03/05 08:29:40;;;;;;;;;;;19.20;40.30;;;;;;5109797;28;19920;-61
2023/03/05 08:32:06;;;;;;;;;;;19.20;40.30;;;;;;5109266;28;19919;-61
2023/03/05 08:34:33;;;;;;;;;;;19.20;40.30;;;;;;5102983;28;19949;-61
2023/03/05 08:37:02;;;;;;;;;;;19.20;40.30;;;;;;5104884;28;19923;-61
2023/03/05 08:39:29;;;;;;;;;;;19.20;40.30;;;;;;5108027;28;19920;-61
2023/03/05 08:41:58;;;;;;;;;;;19.30;40.40;;;;;;5108885;28;20121;-61
2023/03/05 08:44:25;;;;;;;;;;;19.20;40.30;;;;;;5109477;28;20277;-62
2023/03/05 08:46:52;;;;;;;;;;;19.30;40.30;;;;;;5109300;27;19927;-61
2023/03/05 08:49:18;;;;;;;;;;;19.30;40.30;;;;;;5135955;27;20491;-61
2023/03/05 08:51:45;;;;;;;;;;;19.20;40.30;;;;;;5110647;27;19968;-61
2023/03/05 08:54:12;;;;;;;;;;;19.20;40.30;;;;;;5110272;28;20350;-60
2023/03/05 08:56:39;;;;;;;;;;;19.20;40.30;;;;;;5110372;27;19920;-61
2023/03/05 08:59:07;;;;;;;;;;;19.30;40.40;;;;;;5108217;28;19945;-61
2023/03/05 09:01:34;;;;;;;;;;;19.30;40.30;;;;;;5133989;27;19989;-62
2023/03/05 09:04:02;;;;;;;;;;;19.20;40.30;;;;;;5106401;28;19931;-62
2023/03/05 09:06:29;;;;;;;;;;;19.30;40.40;;;;;;5107025;27;19930;-61
2023/03/05 09:08:56;;;;;;;;;;;19.30;40.40;;;;;;5104546;28;19938;-62
2023/03/05 09:11:22;;;;;;;;;;;19.30;40.40;;;;;;5133041;27;21069;-61
2023/03/05 09:13:49;;;;;;;;;;;19.20;40.30;;;;;;5097140;28;19920;-61
2023/03/05 09:16:17;;;;;;;;;;;19.30;40.40;;;;;;5096785;28;20304;-62
2023/03/05 09:18:44;;;;;;;;;;;19.30;40.40;;;;;;5110407;28;19981;-62
2023/03/05 09:21:11;;;;;;;;;;;19.30;40.40;;;;;;5099539;28;19920;-61
2023/03/05 09:23:38;;;;;;;;;;;19.30;40.40;;;;;;5109858;28;19962;-61
2023/03/05 09:26:05;;;;;;;;;;;19.20;40.30;;;;;;5111762;28;19965;-60
2023/03/05 09:28:32;;;;;;;;;;;19.30;40.40;;;;;;5108772;28;19923;-61
2023/03/05 09:31:01;;;;;;;;;;;19.20;40.30;;;;;;5127216;27;19959;-61
2023/03/05 09:33:29;;;;;;;;;;;19.20;40.30;;;;;;5144014;27;19927;-61
2023/03/05 09:35:56;;;;;;;;;;;19.20;40.40;;;;;;5111026;27;19924;-61
2023/03/05 09:38:23;;;;;;;;;;;19.30;40.40;;;;;;5104295;28;19924;-60
2023/03/05 09:40:52;;;;;;;;;;;19.30;40.40;;;;;;5091037;28;19949;-60
2023/03/05 09:43:22;;;;;;;;;;;19.30;40.40;;;;;;5097982;28;20464;-61
2023/03/05 09:45:55;;;;;;;;;;;19.30;40.40;;;;;;5098393;28;19923;-61
2023/03/05 09:48:23;;;;;;;;;;;19.30;40.40;;;;;;5103075;28;19924;-61
2023/03/05 09:50:52;;;;;;;;;;;19.20;40.40;;;;;;5092560;27;19920;-62
2023/03/05 09:53:21;;;;;;;;;;;19.30;40.50;;;;;;5109273;28;19920;-61
2023/03/05 09:55:48;;;;;;;;;;;19.30;40.40;;;;;;5103561;28;19924;-61
2023/03/05 09:58:16;;;;;;;;;;;19.30;40.50;;;;;;5098805;28;19973;-61
2023/03/05 10:00:44;;;;;;;;;;;19.30;40.50;;;;;;5089200;28;19927;-62
2023/03/05 10:03:15;;;;;;;;;;;19.30;40.50;;;;;;5098043;28;19982;-61
2023/03/05 10:05:48;;;;;;;;;;;19.30;40.60;;;;;;5109782;28;19935;-60
2023/03/05 10:08:16;;;;;;;;;;;19.30;40.60;;;;;;5101324;28;20280;-61
2023/03/05 10:10:43;;;;;;;;;;;19.30;40.60;;;;;;5104201;28;19920;-56
2023/03/05 10:13:12;;;;;;;;;;;19.30;40.60;;;;;;5105945;27;19928;-55
2023/03/05 10:15:40;;;;;;;;;;;19.30;40.40;;;;;;5108508;28;19993;-56
2023/03/05 10:18:11;;;;;;;;;;;19.30;39.00;;;;;;5110589;27;20015;-61
2023/03/05 10:20:47;;;;;;;;;;;19.20;37.20;;;;;;5101073;28;19935;-61
2023/03/05 10:23:28;;;;;;;;;;;19.10;36.90;;;;;;5142830;27;20431;-61
2023/03/05 10:25:58;;;;;;;;;;;19.10;36.60;;;;;;5109029;28;19930;-60
2023/03/05 10:28:26;;;;;;;;;;;19.10;36.90;;;;;;5095390;28;19964;-60
2023/03/05 10:31:05;;;;;;;;;;;19.10;37.20;;;;;;5105929;28;19924;-61
2023/03/05 10:33:34;;;;;;;;;;;19.00;37.30;;;;;;5113092;27;19942;-60
2023/03/05 10:36:10;;;;;;;;;;;19.00;37.50;;;;;;5125506;27;19981;-60
2023/03/05 10:38:55;;;;;;;;;;;19.00;37.70;;;;;;5112379;27;20014;-59
2023/03/05 10:41:26;;;;;;;;;;;19.00;37.90;;;;;;5112473;27;19931;-60
2023/03/05 10:43:55;;;;;;;;;;;19.00;38.00;;;;;;5109255;28;19919;-60
2023/03/05 10:46:22;;;;;;;;;;;19.00;38.10;;;;;;5118230;27;19919;-60
2023/03/05 10:48:51;;;;;;;;;;;19.00;38.20;;;;;;5113122;28;20441;-60
2023/03/05 10:51:19;;;;;;;;;;;19.00;38.30;;;;;;5111843;28;20011;-61
2023/03/05 10:53:50;;;;;;;;;;;19.10;38.50;;;;;;5111991;28;19961;-61
2023/03/05 10:56:17;;;;;;;;;;;19.10;38.60;;;;;;5111900;28;19969;-60
2023/03/05 10:58:45;;;;;;;;;;;19.10;38.70;;;;;;5110086;27;19924;-61
2023/03/05 11:01:20;;;;;;;;;;;19.10;38.70;;;;;;5116406;27;19920;-60
2023/03/05 11:03:48;;;;;;;;;;;19.10;38.70;;;;;;5119087;27;19924;-62
2023/03/05 11:06:15;;;;;;;;;;;19.10;38.80;;;;;;5128817;27;19919;-60
2023/03/05 11:08:42;;;;;;;;;;;19.10;38.80;;;;;;5132532;27;19932;-61
2023/03/05 11:11:13;;;;;;;;;;;19.10;38.90;;;;;;5110544;28;19920;-60
2023/03/05 11:13:41;;;;;;;;;;;19.10;38.90;;;;;;5108331;27;20002;-60
2023/03/05 11:16:14;;;;;;;;;;;19.10;38.90;;;;;;5106515;28;20004;-60
2023/03/05 11:18:41;;;;;;;;;;;19.10;39.00;;;;;;5097418;27;19926;-62
2023/03/05 11:21:09;;;;;;;;;;;19.10;39.00;;;;;;5108311;28;20451;-61
2023/03/05 11:23:36;;;;;;;;;;;19.10;39.00;;;;;;5108530;28;19928;-60
2023/03/05 11:26:03;;;;;;;;;;;19.10;39.00;;;;;;5104508;28;19923;-62
2023/03/05 11:28:31;;;;;;;;;;;19.20;39.10;;;;;;5113856;27;19924;-60
2023/03/05 11:30:59;;;;;;;;;;;19.20;39.20;;;;;;5104327;28;19964;-61
2023/03/05 11:33:27;;;;;;;;;;;19.20;39.20;;;;;;5104854;27;19947;-61
2023/03/05 11:36:05;;;;;;;;;;;19.10;39.20;;;;;;5107561;28;19919;-60
2023/03/05 11:38:31;;;;;;;;;;;19.10;39.20;;;;;;5107861;27;19919;-60
2023/03/05 11:40:58;;;;;;;;;;;19.20;39.30;;;;;;5106092;28;19942;-61
2023/03/05 11:43:25;;;;;;;;;;;19.20;39.30;;;;;;5107457;28;19923;-60
2023/03/05 11:45:53;;;;;;;;;;;19.20;39.30;;;;;;5104257;28;19926;-61
2023/03/05 11:48:21;;;;;;;;;;;19.20;39.30;;;;;;5106724;28;19923;-60
2023/03/05 11:50:51;;;;;;;;;;;19.20;39.30;;;;;;5105891;28;19984;-60
2023/03/05 11:53:18;;;;;;;;;;;19.20;39.30;;;;;;5106465;28;20220;-61
2023/03/05 11:55:45;;;;;;;;;;;19.20;39.40;;;;;;5145065;27;19924;-63
2023/03/05 11:58:30;;;;;;;;;;;19.20;39.40;;;;;;5113512;27;19930;-61
2023/03/05 12:00:57;;;;;;;;;;;19.20;39.40;;;;;;5108877;28;19932;-60
2023/03/05 12:03:24;;;;;;;;;;;19.20;39.40;;;;;;5103607;28;19965;-60
2023/03/05 12:05:53;;;;;;;;;;;19.20;39.40;;;;;;5107086;28;19931;-62
2023/03/05 12:08:21;;;;;;;;;;;19.30;39.60;;;;;;5112462;28;19927;-60
2023/03/05 12:10:48;;;;;;;;;;;19.20;39.50;;;;;;5109160;28;19934;-61
2023/03/05 12:13:17;;;;;;;;;;;19.20;39.50;;;;;;5114387;27;19943;-62
2023/03/05 12:15:46;;;;;;;;;;;19.30;39.60;;;;;;5099902;28;19920;-60
2023/03/05 12:18:18;;;;;;;;;;;19.30;39.60;;;;;;5100158;28;19919;-61
2023/03/05 12:20:46;;;;;;;;;;;19.30;39.60;;;;;;5109903;28;19920;-60
2023/03/05 12:23:17;;;;;;;;;;;19.30;39.60;;;;;;5105341;28;20297;-59
2023/03/05 12:25:47;;;;;;;;;;;19.30;39.60;;;;;;5106076;28;19920;-59
2023/03/05 12:28:14;;;;;;;;;;;19.30;39.60;;;;;;5099352;27;19924;-59
2023/03/05 12:30:54;;;;;;;;;;;19.30;39.70;;;;;;5107122;28;19963;-60
2023/03/05 12:33:31;;;;;;;;;;;19.30;39.70;;;;;;5108254;28;19919;-62
2023/03/05 12:36:13;;;;;;;;;;;19.30;39.70;;;;;;5103603;28;19947;-60
2023/03/05 12:38:41;;;;;;;;;;;19.30;39.70;;;;;;5108811;27;19927;-59
2023/03/05 12:41:41;;;;;;;;;;;19.30;39.70;;;;;;5107822;28;20282;-60
2023/03/05 12:44:18;;;;;;;;;;;19.30;39.70;;;;;;5107570;28;19931;-60
2023/03/05 12:46:45;;;;;;;;;;;19.30;39.70;;;;;;5104838;28;19920;-60
2023/03/05 12:49:27;;;;;;;;;;;19.30;39.70;;;;;;5137867;27;19924;-60
2023/03/05 12:51:55;;;;;;;;;;;19.30;39.70;;;;;;5105417;28;20006;-60
2023/03/05 12:54:38;;;;;;;;;;;19.30;39.80;;;;;;5109281;28;19950;-61
2023/03/05 12:57:06;;;;;;;;;;;19.30;39.80;;;;;;5105822;27;19926;-61
2023/03/05 12:59:36;;;;;;;;;;;19.30;39.80;;;;;;5106070;28;19924;-59
2023/03/05 13:02:03;;;;;;;;;;;19.30;39.90;;;;;;5107687;27;19919;-61
2023/03/05 13:04:30;;;;;;;;;;;19.30;39.90;;;;;;5107643;28;19920;-60
2023/03/05 13:06:58;;;;;;;;;;;19.30;39.90;;;;;;5109138;27;19920;-60
2023/03/05 13:09:26;;;;;;;;;;;19.30;39.90;;;;;;5105776;28;19981;-60
2023/03/05 13:11:54;;;;;;;;;;;19.30;39.90;;;;;;5101677;28;19920;-61
2023/03/05 13:14:39;;;;;;;;;;;19.40;40.00;;;;;;5141753;27;19920;-60
2023/03/05 13:17:20;;;;;;;;;;;19.40;40.00;;;;;;5103660;27;19928;-61
2023/03/05 13:19:47;;;;;;;;;;;19.40;40.00;;;;;;5105387;27;19939;-60
2023/03/05 13:22:14;;;;;;;;;;;19.40;40.10;;;;;;5104983;28;19924;-60
2023/03/05 13:24:40;;;;;;;;;;;19.40;40.10;;;;;;5108467;28;19925;-60
2023/03/05 13:27:20;;;;;;;;;;;19.30;40.00;;;;;;5108540;28;19965;-62
2023/03/05 13:29:50;;;;;;;;;;;19.40;40.10;;;;;;5108485;27;19934;-60
2023/03/05 13:32:19;;;;;;;;;;;19.30;40.00;;;;;;5103258;27;19977;-61
2023/03/05 13:34:47;;;;;;;;;;;19.30;40.00;;;;;;5146582;27;19919;-60
2023/03/05 13:37:19;;;;;;;;;;;19.40;40.10;;;;;;5107091;28;19920;-60
2023/03/05 13:39:47;;;;;;;;;;;19.40;40.10;;;;;;5106280;27;19920;-61
2023/03/05 13:42:15;;;;;;;;;;;19.40;39.70;;;;;;5101682;28;19976;-60
2023/03/05 13:44:43;;;;;;;;;;;19.40;39.30;;;;;;5108709;28;19981;-59
2023/03/05 13:47:15;;;;;;;;;;;19.40;39.30;;;;;;5109072;28;20299;-60
2023/03/05 13:49:41;;;;;;;;;;;19.30;39.40;;;;;;5097978;28;19942;-59
2023/03/05 13:52:08;;;;;;;;;;;19.30;39.50;;;;;;5088848;28;19924;-61
2023/03/05 13:54:35;;;;;;;;;;;19.30;39.50;;;;;;5134886;27;20242;-60
2023/03/05 13:57:03;;;;;;;;;;;19.30;39.50;;;;;;5107362;28;19956;-60
2023/03/05 13:59:30;;;;;;;;;;;19.30;39.60;;;;;;5099112;28;19930;-61
2023/03/05 14:01:58;;;;;;;;;;;19.30;39.60;;;;;;5106119;28;19923;-60
2023/03/05 14:04:25;;;;;;;;;;;19.30;39.60;;;;;;5136187;27;20564;-61
2023/03/05 14:06:53;;;;;;;;;;;19.30;39.60;;;;;;5107615;28;19920;-61
2023/03/05 14:09:21;;;;;;;;;;;19.30;39.60;;;;;;5103762;28;19977;-60
2023/03/05 14:11:55;;;;;;;;;;;19.30;39.70;;;;;;5099627;28;19919;-61
2023/03/05 14:14:21;;;;;;;;;;;19.30;39.70;;;;;;5108137;28;19920;-60
2023/03/05 14:16:48;;;;;;;;;;;19.30;39.70;;;;;;5108740;28;20346;-62
2023/03/05 14:19:31;;;;;;;;;;;19.30;39.70;;;;;;5100981;28;21830;-60
2023/03/05 14:21:58;;;;;;;;;;;19.30;39.80;;;;;;5098901;28;19920;-60